Wetterdaten: Woche 18.09.17 - 24.09.17 (KW38)
Datum Zeit Temp. A. Feuchte A. Luftdruck Regen Wind Richtung Taupunkt Windchill Windben
18.09.2017 00:00 7,2 C 96 % 1015,0 hPa 1,5 l/m 1,2 km/h (1 Bft) NO 6,6 C 7,2 C 3,5 km/h (1 Bft)
18.09.2017 01:00 6,9 C 96 % 1014,9 hPa 0,3 l/m 0,6 km/h (0 Bft) NO 6,3 C 6,9 C 2,4 km/h (1 Bft)
18.09.2017 02:00 6,8 C 96 % 1014,8 hPa 0,3 l/m 0,5 km/h (0 Bft) O-NO 6,2 C 6,8 C 3,1 km/h (1 Bft)
18.09.2017 03:00 6,8 C 97 % 1014,9 hPa 0,3 l/m 0,7 km/h (0 Bft) O-NO 6,3 C 6,8 C 3,1 km/h (1 Bft)
18.09.2017 04:00 6,7 C 96 % 1015,0 hPa 0,0 l/m 0,7 km/h (0 Bft) O-NO 6,1 C 6,7 C 3,1 km/h (1 Bft)
18.09.2017 05:00 6,7 C 96 % 1015,2 hPa 0,0 l/m 1,1 km/h (0 Bft) O-NO 6,1 C 6,7 C 3,6 km/h (1 Bft)
18.09.2017 06:00 6,8 C 96 % 1015,6 hPa 0,0 l/m 0,8 km/h (0 Bft) NO 6,2 C 6,8 C 3,5 km/h (1 Bft)
18.09.2017 07:00 6,7 C 96 % 1015,9 hPa 0,0 l/m 1,1 km/h (1 Bft) O 6,1 C 6,7 C 4,0 km/h (1 Bft)
18.09.2017 08:00 6,9 C 96 % 1016,1 hPa 0,0 l/m 2,2 km/h (1 Bft) O-NO 6,3 C 6,9 C 5,9 km/h (2 Bft)
18.09.2017 09:00 7,4 C 95 % 1016,6 hPa 0,0 l/m 2,6 km/h (1 Bft) NO 6,8 C 7,4 C 8,0 km/h (2 Bft)
18.09.2017 10:00 8,2 C 93 % 1017,0 hPa 0,0 l/m 3,1 km/h (1 Bft) O-NO 7,1 C 8,2 C 9,1 km/h (2 Bft)
18.09.2017 11:00 9,8 C 87 % 1016,9 hPa 0,0 l/m 3,1 km/h (1 Bft) O 7,7 C 9,7 C 7,3 km/h (2 Bft)
18.09.2017 12:00 10,7 C 82 % 1017,0 hPa 0,0 l/m 2,6 km/h (1 Bft) O-NO 7,7 C 10,7 C 6,8 km/h (2 Bft)
18.09.2017 13:00 11,6 C 78 % 1016,9 hPa 0,0 l/m 3,4 km/h (1 Bft) NO 7,8 C 11,6 C 9,1 km/h (2 Bft)
18.09.2017 14:00 12,0 C 73 % 1016,7 hPa 0,0 l/m 3,9 km/h (1 Bft) O-NO 7,4 C 12,0 C 9,9 km/h (2 Bft)
18.09.2017 15:00 12,4 C 71 % 1016,5 hPa 0,0 l/m 4,1 km/h (1 Bft) O-NO 7,3 C 12,4 C 10,6 km/h (2 Bft)
18.09.2017 16:00 12,0 C 72 % 1016,3 hPa 0,0 l/m 2,9 km/h (1 Bft) O-NO 7,2 C 12,0 C 7,5 km/h (2 Bft)
18.09.2017 17:00 11,3 C 77 % 1016,3 hPa 0,0 l/m 2,6 km/h (1 Bft) O-NO 7,3 C 11,3 C 6,3 km/h (2 Bft)
18.09.2017 18:00 10,8 C 81 % 1016,5 hPa 0,0 l/m 1,2 km/h (1 Bft) O 7,7 C 10,8 C 4,3 km/h (1 Bft)
18.09.2017 19:00 9,9 C 84 % 1016,8 hPa 0,0 l/m 0,3 km/h (0 Bft) O 7,4 C 9,9 C 1,7 km/h (1 Bft)
18.09.2017 20:00 9,1 C 90 % 1017,2 hPa 0,0 l/m 0,0 km/h (0 Bft) O 7,5 C 9,1 C 0,0 km/h (0 Bft)
18.09.2017 21:00 8,0 C 91 % 1017,5 hPa 0,0 l/m 0,0 km/h (0 Bft) O 6,7 C 8,0 C 0,0 km/h (0 Bft)
18.09.2017 22:00 6,5 C 94 % 1017,8 hPa 0,0 l/m 0,0 km/h (0 Bft) O 5,6 C 6,5 C 0,0 km/h (0 Bft)
18.09.2017 23:00 6,6 C 96 % 1017,9 hPa 0,0 l/m 0,0 km/h (0 Bft) O 6,1 C 6,6 C 0,0 km/h (0 Bft)
19.09.2017 00:00 6,8 C 96 % 1017,8 hPa 0,0 l/m 0,0 km/h (0 Bft) O 6,3 C 6,8 C 0,0 km/h (0 Bft)
19.09.2017 01:00 7,1 C 96 % 1017,5 hPa 0,0 l/m 0,0 km/h (0 Bft) O-NO 6,5 C 7,1 C 0,0 km/h (0 Bft)
19.09.2017 02:00 7,1 C 96 % 1017,5 hPa 0,0 l/m 0,0 km/h (0 Bft) O-NO 6,5 C 7,1 C 0,0 km/h (0 Bft)
19.09.2017 03:00 7,0 C 96 % 1017,3 hPa 0,0 l/m 0,0 km/h (0 Bft) O-NO 6,4 C 7,0 C 0,0 km/h (0 Bft)
19.09.2017 04:00 6,9 C 96 % 1017,0 hPa 0,0 l/m 0,0 km/h (0 Bft) O-NO 6,3 C 6,9 C 0,0 km/h (0 Bft)
19.09.2017 05:00 6,7 C 96 % 1016,9 hPa 0,0 l/m 0,0 km/h (0 Bft) O-NO 6,2 C 6,7 C 0,0 km/h (0 Bft)
19.09.2017 06:00 6,7 C 96 % 1017,0 hPa 0,0 l/m 0,0 km/h (0 Bft) O 6,1 C 6,7 C 0,0 km/h (0 Bft)
19.09.2017 07:00 6,6 C 96 % 1017,3 hPa 0,0 l/m 0,0 km/h (0 Bft) S-SO 6,0 C 6,6 C 0,0 km/h (0 Bft)
19.09.2017 08:00 7,4 C 96 % 1017,2 hPa 0,0 l/m 0,0 km/h (0 Bft) O-NO 6,8 C 7,4 C 0,0 km/h (0 Bft)
19.09.2017 09:00 8,7 C 91 % 1017,3 hPa 0,0 l/m 0,7 km/h (0 Bft) O-NO 7,3 C 8,7 C 2,1 km/h (1 Bft)
19.09.2017 10:00 9,4 C 88 % 1017,5 hPa 0,0 l/m 3,0 km/h (1 Bft) O-NO 7,5 C 9,4 C 9,4 km/h (2 Bft)
19.09.2017 11:00 9,9 C 84 % 1017,7 hPa 0,0 l/m 3,3 km/h (1 Bft) O-NO 7,3 C 9,9 C 8,5 km/h (2 Bft)
19.09.2017 12:00 10,9 C 80 % 1017,6 hPa 0,0 l/m 3,3 km/h (1 Bft) O-NO 7,6 C 10,9 C 7,7 km/h (2 Bft)
19.09.2017 13:00 12,3 C 74 % 1017,4 hPa 0,0 l/m 4,4 km/h (1 Bft) O-NO 7,8 C 12,3 C 11,7 km/h (2 Bft)
19.09.2017 14:00 13,7 C 69 % 1017,3 hPa 0,0 l/m 5,8 km/h (2 Bft) O 8,1 C 13,5 C 14,9 km/h (3 Bft)
19.09.2017 15:00 11,5 C 79 % 1017,7 hPa 0,0 l/m 4,5 km/h (1 Bft) O 7,8 C 11,5 C 11,7 km/h (2 Bft)
19.09.2017 16:00 12,5 C 76 % 1017,7 hPa 0,0 l/m 5,0 km/h (1 Bft) O-NO 8,3 C 12,4 C 11,7 km/h (2 Bft)
19.09.2017 17:00 12,0 C 76 % 1017,8 hPa 0,0 l/m 3,7 km/h (1 Bft) O 7,9 C 12,0 C 9,1 km/h (2 Bft)
19.09.2017 18:00 10,5 C 84 % 1018,4 hPa 0,0 l/m 1,7 km/h (1 Bft) O-NO 8,0 C 10,5 C 5,9 km/h (2 Bft)
19.09.2017 19:00 9,3 C 91 % 1019,0 hPa 0,0 l/m 0,3 km/h (0 Bft) O-NO 7,8 C 9,3 C 1,5 km/h (1 Bft)
19.09.2017 20:00 8,4 C 92 % 1019,8 hPa 0,0 l/m 0,0 km/h (0 Bft) O-NO 7,2 C 8,4 C 0,3 km/h (0 Bft)
19.09.2017 21:00 7,6 C 94 % 1020,2 hPa 0,0 l/m 0,1 km/h (0 Bft) O-NO 6,7 C 7,6 C 1,6 km/h (1 Bft)
19.09.2017 22:00 7,4 C 96 % 1020,6 hPa 0,0 l/m 0,2 km/h (0 Bft) O-NO 6,8 C 7,4 C 2,1 km/h (1 Bft)
19.09.2017 23:00 7,8 C 96 % 1020,6 hPa 0,3 l/m 0,0 km/h (0 Bft) O-NO 7,2 C 7,8 C 0,0 km/h (0 Bft)
20.09.2017 00:00 7,8 C 96 % 1020,7 hPa 0,0 l/m 0,0 km/h (0 Bft) O-NO 7,2 C 7,8 C 0,0 km/h (0 Bft)
20.09.2017 01:00 8,1 C 96 % 1020,8 hPa 0,0 l/m 0,0 km/h (0 Bft) O-NO 7,5 C 8,1 C 0,0 km/h (0 Bft)
20.09.2017 02:00 8,2 C 96 % 1020,9 hPa 0,0 l/m 0,0 km/h (0 Bft) O-NO 7,6 C 8,2 C 0,0 km/h (0 Bft)
20.09.2017 03:00 8,1 C 96 % 1020,7 hPa 0,3 l/m 0,0 km/h (0 Bft) O-NO 7,4 C 8,1 C 0,0 km/h (0 Bft)
20.09.2017 04:00 7,8 C 96 % 1020,7 hPa 0,0 l/m 0,0 km/h (0 Bft) O-NO 7,2 C 7,8 C 0,1 km/h (0 Bft)
20.09.2017 05:00 7,5 C 96 % 1021,0 hPa 0,0 l/m 0,0 km/h (0 Bft) O-NO 6,8 C 7,5 C 0,3 km/h (0 Bft)
20.09.2017 06:00 7,4 C 95 % 1021,2 hPa 0,0 l/m 0,0 km/h (0 Bft) NO 6,7 C 7,4 C 0,1 km/h (0 Bft)
20.09.2017 07:00 7,2 C 96 % 1021,5 hPa 0,0 l/m 0,0 km/h (0 Bft) NO 6,6 C 7,2 C 0,3 km/h (0 Bft)
20.09.2017 08:00 7,6 C 96 % 1021,9 hPa 0,0 l/m 0,0 km/h (0 Bft) O-NO 7,0 C 7,6 C 0,0 km/h (0 Bft)
20.09.2017 09:00 9,4 C 91 % 1022,0 hPa 0,0 l/m 1,8 km/h (1 Bft) O-NO 7,9 C 9,4 C 5,2 km/h (1 Bft)
20.09.2017 10:00 10,6 C 84 % 1022,2 hPa 0,0 l/m 3,8 km/h (1 Bft) O-NO 8,0 C 10,6 C 10,7 km/h (2 Bft)
20.09.2017 11:00 12,3 C 77 % 1022,1 hPa 0,0 l/m 4,6 km/h (1 Bft) NO 8,5 C 12,3 C 9,6 km/h (2 Bft)
20.09.2017 12:00 12,6 C 75 % 1022,0 hPa 0,0 l/m 4,2 km/h (1 Bft) N-NO 8,2 C 12,6 C 9,5 km/h (2 Bft)
20.09.2017 13:00 11,4 C 83 % 1021,9 hPa 0,3 l/m 1,7 km/h (1 Bft) O-NO 8,5 C 11,4 C 4,4 km/h (1 Bft)
20.09.2017 14:00 11,9 C 83 % 1021,8 hPa 0,0 l/m 2,7 km/h (1 Bft) O-NO 9,1 C 11,9 C 7,6 km/h (2 Bft)
20.09.2017 15:00 12,7 C 78 % 1021,5 hPa 0,0 l/m 3,2 km/h (1 Bft) NO 8,9 C 12,7 C 8,4 km/h (2 Bft)
20.09.2017 16:00 13,6 C 72 % 1021,3 hPa 0,0 l/m 3,8 km/h (1 Bft) NO 8,6 C 13,6 C 9,3 km/h (2 Bft)
20.09.2017 17:00 14,1 C 67 % 1021,1 hPa 0,0 l/m 3,9 km/h (1 Bft) NO 8,1 C 14,1 C 9,8 km/h (2 Bft)
20.09.2017 18:00 12,9 C 73 % 1021,2 hPa 0,0 l/m 2,7 km/h (1 Bft) O 8,1 C 12,9 C 7,1 km/h (2 Bft)
20.09.2017 19:00 10,9 C 82 % 1021,5 hPa 0,0 l/m 0,3 km/h (0 Bft) O 8,0 C 10,9 C 1,7 km/h (1 Bft)
20.09.2017 20:00 8,3 C 90 % 1022,0 hPa 0,0 l/m 0,1 km/h (0 Bft) O-SO 6,7 C 8,3 C 0,5 km/h (0 Bft)
20.09.2017 21:00 6,5 C 92 % 1022,2 hPa 0,0 l/m 0,2 km/h (0 Bft) O 5,4 C 6,5 C 0,8 km/h (0 Bft)
20.09.2017 22:00 5,2 C 94 % 1022,4 hPa 0,0 l/m 0,0 km/h (0 Bft) O 4,4 C 5,2 C 0,0 km/h (0 Bft)
20.09.2017 23:00 4,1 C 95 % 1022,5 hPa 0,0 l/m 0,0 km/h (0 Bft) O 3,3 C 4,1 C 0,0 km/h (0 Bft)
21.09.2017 00:00 3,9 C 96 % 1022,5 hPa 0,0 l/m 0,0 km/h (0 Bft) N 3,3 C 3,9 C 0,0 km/h (0 Bft)
21.09.2017 01:00 4,3 C 97 % 1022,5 hPa 0,0 l/m 0,0 km/h (0 Bft) N 3,8 C 4,3 C 0,0 km/h (0 Bft)
21.09.2017 02:00 4,5 C 97 % 1022,4 hPa 0,0 l/m 0,0 km/h (0 Bft) N 4,1 C 4,5 C 0,0 km/h (0 Bft)
21.09.2017 03:00 4,2 C 97 % 1022,2 hPa 0,0 l/m 0,0 km/h (0 Bft) N 3,7 C 4,2 C 0,0 km/h (0 Bft)
21.09.2017 04:00 3,5 C 97 % 1022,1 hPa 0,0 l/m 0,0 km/h (0 Bft) N 3,0 C 3,5 C 0,0 km/h (0 Bft)
21.09.2017 05:00 3,0 C 97 % 1021,9 hPa 0,3 l/m 0,0 km/h (0 Bft) N 2,5 C 3,0 C 0,0 km/h (0 Bft)
21.09.2017 06:00 2,2 C 96 % 1021,8 hPa 0,0 l/m 0,0 km/h (0 Bft) N 1,6 C 2,2 C 0,0 km/h (0 Bft)
21.09.2017 07:00 1,7 C 97 % 1021,9 hPa 0,0 l/m 0,0 km/h (0 Bft) N 1,2 C 1,7 C 0,0 km/h (0 Bft)
21.09.2017 08:00 2,3 C 97 % 1021,9 hPa 0,0 l/m 0,0 km/h (0 Bft) N 1,9 C 2,3 C 0,0 km/h (0 Bft)
21.09.2017 09:00 5,4 C 98 % 1022,0 hPa 0,0 l/m 0,0 km/h (0 Bft) N 5,1 C 5,4 C 0,0 km/h (0 Bft)
21.09.2017 10:00 10,9 C 85 % 1021,8 hPa 0,0 l/m 1,3 km/h (1 Bft) NO 8,4 C 10,9 C 3,7 km/h (1 Bft)
21.09.2017 11:00 14,3 C 68 % 1021,4 hPa 0,0 l/m 1,5 km/h (1 Bft) W-NW 8,5 C 14,3 C 4,3 km/h (1 Bft)
21.09.2017 12:00 15,6 C 59 % 1021,2 hPa 0,0 l/m 2,5 km/h (1 Bft) O-NO 7,6 C 15,6 C 6,2 km/h (2 Bft)
21.09.2017 13:00 16,7 C 56 % 1020,7 hPa 0,0 l/m 3,0 km/h (1 Bft) N-NW 7,7 C 16,7 C 7,1 km/h (2 Bft)
21.09.2017 14:00 17,6 C 57 % 1020,1 hPa 0,0 l/m 3,0 km/h (1 Bft) NO 9,0 C 17,6 C 7,1 km/h (2 Bft)
21.09.2017 15:00 17,9 C 56 % 1019,6 hPa 0,0 l/m 2,6 km/h (1 Bft) S-SW 8,9 C 17,9 C 7,6 km/h (2 Bft)
21.09.2017 16:00 18,2 C 54 % 1019,3 hPa 0,0 l/m 2,5 km/h (1 Bft) W 8,7 C 18,2 C 7,2 km/h (2 Bft)
21.09.2017 17:00 17,6 C 54 % 1019,1 hPa 0,0 l/m 2,7 km/h (1 Bft) W 8,2 C 17,6 C 7,8 km/h (2 Bft)
21.09.2017 18:00 16,0 C 59 % 1019,0 hPa 0,0 l/m 1,0 km/h (0 Bft) SW 7,9 C 16,0 C 3,5 km/h (1 Bft)
21.09.2017 19:00 12,4 C 76 % 1019,2 hPa 0,0 l/m 0,0 km/h (0 Bft) SW 8,2 C 12,4 C 0,0 km/h (0 Bft)
21.09.2017 20:00 9,2 C 87 % 1019,7 hPa 0,0 l/m 0,0 km/h (0 Bft) SW 7,1 C 9,2 C 0,0 km/h (0 Bft)
21.09.2017 21:00 7,3 C 90 % 1020,1 hPa 0,0 l/m 0,0 km/h (0 Bft) SW 5,8 C 7,3 C 0,0 km/h (0 Bft)
21.09.2017 22:00 6,1 C 93 % 1020,2 hPa 0,0 l/m 0,0 km/h (0 Bft) SW 5,1 C 6,1 C 0,0 km/h (0 Bft)
21.09.2017 23:00 5,2 C 94 % 1020,4 hPa 0,0 l/m 0,0 km/h (0 Bft) SW 4,4 C 5,2 C 0,0 km/h (0 Bft)
22.09.2017 00:00 4,8 C 95 % 1020,6 hPa 0,0 l/m 0,0 km/h (0 Bft) N 4,0 C 4,8 C 0,0 km/h (0 Bft)
22.09.2017 01:00 4,3 C 95 % 1020,6 hPa 0,0 l/m 0,0 km/h (0 Bft) N 3,6 C 4,3 C 0,0 km/h (0 Bft)
22.09.2017 02:00 3,9 C 95 % 1020,6 hPa 0,0 l/m 0,0 km/h (0 Bft) N 3,2 C 3,9 C 0,0 km/h (0 Bft)
22.09.2017 03:00 3,4 C 96 % 1020,4 hPa 0,0 l/m 0,0 km/h (0 Bft) N 2,8 C 3,4 C 0,0 km/h (0 Bft)
22.09.2017 04:00 2,9 C 96 % 1020,1 hPa 0,0 l/m 0,0 km/h (0 Bft) N 2,4 C 2,9 C 0,0 km/h (0 Bft)
22.09.2017 05:00 2,6 C 96 % 1020,0 hPa 0,0 l/m 0,0 km/h (0 Bft) N 2,0 C 2,6 C 0,0 km/h (0 Bft)
22.09.2017 06:00 2,2 C 96 % 1020,0 hPa 0,0 l/m 0,0 km/h (0 Bft) N 1,6 C 2,2 C 0,0 km/h (0 Bft)
22.09.2017 07:00 1,9 C 96 % 1020,3 hPa 0,0 l/m 0,0 km/h (0 Bft) N 1,4 C 1,9 C 0,0 km/h (0 Bft)
22.09.2017 08:00 4,2 C 98 % 1020,6 hPa 0,0 l/m 0,0 km/h (0 Bft) N 3,9 C 4,2 C 0,0 km/h (0 Bft)
22.09.2017 09:00 8,8 C 91 % 1020,6 hPa 0,0 l/m 0,0 km/h (0 Bft) N 7,3 C 8,8 C 0,0 km/h (0 Bft)
22.09.2017 10:00 14,0 C 76 % 1020,5 hPa 0,0 l/m 0,5 km/h (0 Bft) W-SW 9,8 C 14,0 C 1,7 km/h (1 Bft)
22.09.2017 11:00 16,5 C 65 % 1020,3 hPa 0,0 l/m 4,3 km/h (1 Bft) NO 9,8 C 16,5 C 8,5 km/h (2 Bft)
22.09.2017 12:00 17,7 C 61 % 1020,2 hPa 0,0 l/m 3,9 km/h (1 Bft) N-NO 10,0 C 17,7 C 7,8 km/h (2 Bft)
22.09.2017 13:00 19,6 C 51 % 1020,1 hPa 0,0 l/m 3,6 km/h (1 Bft) NO 9,3 C 19,6 C 8,2 km/h (2 Bft)
22.09.2017 14:00 20,4 C 46 % 1020,0 hPa 0,0 l/m 3,5 km/h (1 Bft) O-NO 8,5 C 20,4 C 9,0 km/h (2 Bft)
22.09.2017 15:00 20,8 C 46 % 1020,1 hPa 0,0 l/m 3,7 km/h (1 Bft) O 8,7 C 20,8 C 10,2 km/h (2 Bft)
22.09.2017 16:00 20,6 C 46 % 1020,1 hPa 0,0 l/m 3,2 km/h (1 Bft) O 8,6 C 20,6 C 9,2 km/h (2 Bft)
22.09.2017 17:00 18,9 C 52 % 1020,5 hPa 0,0 l/m 2,4 km/h (1 Bft) O-NO 8,8 C 18,9 C 5,9 km/h (2 Bft)
22.09.2017 18:00 17,2 C 64 % 1020,5 hPa 0,0 l/m 0,6 km/h (0 Bft) O 10,1 C 17,2 C 2,3 km/h (1 Bft)
22.09.2017 19:00 13,8 C 78 % 1020,9 hPa 0,0 l/m 0,0 km/h (0 Bft) O 10,1 C 13,8 C 0,0 km/h (0 Bft)
22.09.2017 20:00 11,0 C 87 % 1021,5 hPa 0,0 l/m 0,0 km/h (0 Bft) O 9,0 C 11,0 C 0,1 km/h (0 Bft)
22.09.2017 21:00 9,8 C 92 % 1021,9 hPa 0,0 l/m 0,0 km/h (0 Bft) O 8,5 C 9,8 C 0,0 km/h (0 Bft)
22.09.2017 22:00 9,1 C 93 % 1022,3 hPa 0,0 l/m 0,0 km/h (0 Bft) O 7,9 C 9,1 C 0,0 km/h (0 Bft)
22.09.2017 23:00 8,0 C 94 % 1022,6 hPa 0,0 l/m 0,0 km/h (0 Bft) O 7,1 C 8,0 C 0,0 km/h (0 Bft)
23.09.2017 00:00 7,4 C 94 % 1022,6 hPa 0,0 l/m 0,0 km/h (0 Bft) O 6,5 C 7,4 C 0,0 km/h (0 Bft)
23.09.2017 01:00 6,6 C 95 % 1022,7 hPa 0,0 l/m 0,0 km/h (0 Bft) O 5,9 C 6,6 C 0,0 km/h (0 Bft)
23.09.2017 02:00 6,1 C 96 % 1022,7 hPa 0,0 l/m 0,0 km/h (0 Bft) O 5,5 C 6,1 C 0,0 km/h (0 Bft)
23.09.2017 03:00 5,7 C 96 % 1022,7 hPa 0,0 l/m 0,0 km/h (0 Bft) O 5,0 C 5,7 C 0,0 km/h (0 Bft)
23.09.2017 04:00 5,1 C 96 % 1022,4 hPa 0,0 l/m 0,0 km/h (0 Bft) O 4,5 C 5,1 C 0,0 km/h (0 Bft)
23.09.2017 05:00 4,6 C 96 % 1022,2 hPa 0,0 l/m 0,0 km/h (0 Bft) O 4,0 C 4,6 C 0,0 km/h (0 Bft)
23.09.2017 06:00 4,2 C 96 % 1022,2 hPa 0,0 l/m 0,0 km/h (0 Bft) O 3,7 C 4,2 C 0,0 km/h (0 Bft)
23.09.2017 07:00 3,7 C 96 % 1022,3 hPa 0,0 l/m 0,0 km/h (0 Bft) O 3,2 C 3,7 C 0,0 km/h (0 Bft)
23.09.2017 08:00 5,3 C 98 % 1022,3 hPa 0,0 l/m 0,0 km/h (0 Bft) O 5,0 C 5,3 C 0,0 km/h (0 Bft)
23.09.2017 09:00 9,9 C 91 % 1022,3 hPa 0,0 l/m 0,0 km/h (0 Bft) O 8,5 C 9,9 C 0,0 km/h (0 Bft)
23.09.2017 10:00 14,0 C 81 % 1022,1 hPa 0,0 l/m 0,0 km/h (0 Bft) O 10,8 C 14,0 C 0,1 km/h (0 Bft)
23.09.2017 11:00 17,2 C 68 % 1021,8 hPa 0,0 l/m 1,6 km/h (1 Bft) NW 11,1 C 17,2 C 4,2 km/h (1 Bft)
23.09.2017 12:00 17,8 C 64 % 1021,6 hPa 0,0 l/m 3,0 km/h (1 Bft) NW 10,8 C 17,8 C 6,8 km/h (2 Bft)
23.09.2017 13:00 18,9 C 59 % 1021,0 hPa 0,0 l/m 3,3 km/h (1 Bft) W-NW 10,7 C 18,9 C 8,8 km/h (2 Bft)
23.09.2017 14:00 19,5 C 56 % 1020,7 hPa 0,0 l/m 3,1 km/h (1 Bft) SW 10,4 C 19,5 C 7,8 km/h (2 Bft)
23.09.2017 15:00 19,8 C 55 % 1020,4 hPa 0,0 l/m 2,5 km/h (1 Bft) NW 10,3 C 19,8 C 7,8 km/h (2 Bft)
23.09.2017 16:00 18,9 C 58 % 1020,0 hPa 0,0 l/m 2,7 km/h (1 Bft) S-SW 10,3 C 18,9 C 8,0 km/h (2 Bft)
23.09.2017 17:00 17,3 C 61 % 1019,9 hPa 0,0 l/m 1,8 km/h (1 Bft) W-NW 9,8 C 17,3 C 6,3 km/h (2 Bft)
23.09.2017 18:00 15,5 C 72 % 1020,1 hPa 0,0 l/m 0,3 km/h (0 Bft) S 10,3 C 15,5 C 2,9 km/h (1 Bft)
23.09.2017 19:00 13,9 C 79 % 1020,3 hPa 0,0 l/m 0,2 km/h (0 Bft) S 10,3 C 13,9 C 1,6 km/h (1 Bft)
23.09.2017 20:00 12,3 C 86 % 1020,6 hPa 0,0 l/m 0,0 km/h (0 Bft) S 9,9 C 12,3 C 0,0 km/h (0 Bft)
23.09.2017 21:00 11,1 C 89 % 1020,8 hPa 0,0 l/m 0,0 km/h (0 Bft) S 9,4 C 11,1 C 0,0 km/h (0 Bft)
23.09.2017 22:00 10,4 C 91 % 1020,7 hPa 0,0 l/m 0,0 km/h (0 Bft) S 9,0 C 10,4 C 0,0 km/h (0 Bft)
23.09.2017 23:00 10,0 C 93 % 1020,4 hPa 0,0 l/m 0,0 km/h (0 Bft) S 8,9 C 10,0 C 0,0 km/h (0 Bft)
24.09.2017 00:00 9,8 C 93 % 1020,4 hPa 0,0 l/m 0,0 km/h (0 Bft) S 8,8 C 9,8 C 0,0 km/h (0 Bft)
24.09.2017 01:00 9,5 C 94 % 1020,1 hPa 0,0 l/m 0,0 km/h (0 Bft) S 8,5 C 9,5 C 0,0 km/h (0 Bft)
24.09.2017 02:00 9,2 C 94 % 1020,0 hPa 0,0 l/m 0,0 km/h (0 Bft) S 8,3 C 9,2 C 0,0 km/h (0 Bft)
24.09.2017 03:00 8,5 C 94 % 1019,7 hPa 0,0 l/m 0,0 km/h (0 Bft) S 7,6 C 8,5 C 0,0 km/h (0 Bft)
24.09.2017 04:00 7,3 C 95 % 1019,7 hPa 0,0 l/m 0,0 km/h (0 Bft) S 6,5 C 7,3 C 0,0 km/h (0 Bft)
24.09.2017 05:00 6,4 C 95 % 1019,8 hPa 0,0 l/m 0,0 km/h (0 Bft) S 5,7 C 6,4 C 0,0 km/h (0 Bft)
24.09.2017 06:00 5,8 C 96 % 1019,9 hPa 0,0 l/m 0,0 km/h (0 Bft) S 5,2 C 5,8 C 0,0 km/h (0 Bft)
24.09.2017 07:00 5,4 C 96 % 1020,2 hPa 0,0 l/m 0,0 km/h (0 Bft) S 4,8 C 5,4 C 0,0 km/h (0 Bft)
24.09.2017 08:00 6,2 C 97 % 1020,5 hPa 0,0 l/m 0,0 km/h (0 Bft) S 5,7 C 6,2 C 0,0 km/h (0 Bft)
24.09.2017 09:00 10,0 C 91 % 1020,6 hPa 0,0 l/m 0,0 km/h (0 Bft) S 8,7 C 10,0 C 0,0 km/h (0 Bft)
24.09.2017 10:00 14,3 C 80 % 1020,7 hPa 0,0 l/m 0,3 km/h (0 Bft) SW 10,8 C 14,3 C 1,5 km/h (1 Bft)
24.09.2017 11:00 16,9 C 66 % 1020,5 hPa 0,0 l/m 2,5 km/h (1 Bft) NW 10,6 C 16,9 C 6,2 km/h (2 Bft)
24.09.2017 12:00 18,1 C 59 % 1020,2 hPa 0,0 l/m 2,8 km/h (1 Bft) N-NW 10,0 C 18,1 C 7,0 km/h (2 Bft)
24.09.2017 13:00 18,9 C 53 % 1019,8 hPa 0,0 l/m 2,7 km/h (1 Bft) N-NW 9,0 C 18,9 C 6,8 km/h (2 Bft)
24.09.2017 14:00 19,4 C 50 % 1019,5 hPa 0,0 l/m 2,5 km/h (1 Bft) N-NO 8,8 C 19,4 C 7,5 km/h (2 Bft)
24.09.2017 15:00 18,8 C 51 % 1019,5 hPa 0,0 l/m 1,3 km/h (1 Bft) NW 8,3 C 18,8 C 4,5 km/h (1 Bft)
24.09.2017 16:00 17,8 C 58 % 1019,6 hPa 0,0 l/m 1,6 km/h (1 Bft) NW 9,3 C 17,8 C 5,1 km/h (1 Bft)
24.09.2017 17:00 16,2 C 65 % 1019,8 hPa 0,0 l/m 0,9 km/h (0 Bft) N-NW 9,7 C 16,2 C 4,1 km/h (1 Bft)
24.09.2017 18:00 14,9 C 74 % 1019,9 hPa 0,0 l/m 0,2 km/h (0 Bft) N-NW 10,4 C 14,9 C 1,7 km/h (1 Bft)
24.09.2017 19:00 13,2 C 82 % 1020,1 hPa 0,0 l/m 0,0 km/h (0 Bft) N 10,2 C 13,2 C 0,4 km/h (0 Bft)
24.09.2017 20:00 11,4 C 87 % 1020,4 hPa 0,0 l/m 0,0 km/h (0 Bft) N 9,3 C 11,4 C 0,0 km/h (0 Bft)
24.09.2017 21:00 9,6 C 91 % 1020,8 hPa 0,0 l/m 0,0 km/h (0 Bft) N 8,2 C 9,6 C 0,0 km/h (0 Bft)
24.09.2017 22:00 8,5 C 93 % 1020,9 hPa 0,0 l/m 0,0 km/h (0 Bft) N 7,4 C 8,5 C 0,0 km/h (0 Bft)
24.09.2017 23:00 7,6 C 94 % 1020,7 hPa 0,0 l/m 0,0 km/h (0 Bft) N 6,7 C 7,6 C 0,0 km/h (0 Bft)
Min-Datum _ 21.09.17 22.09.17 18.09.17 - 24.09.17 - 21.09.17 21.09.17 24.09.17
_ Min-Zeit 07:20 15:10 03:00 - 23:00 - 07:20 07:20 23:00
Minimum _ 1,6 C 42 % 1014,8 hPa - 0,0 km/h (0 Bft) - 1,2 C 1,6 C 0,0 km/h (0 Bft)
Max-Datum _ 22.09.17 24.09.17 23.09.17 18.09.17 20.09.17 - 23.09.17 22.09.17 19.09.17
_ Max-Zeit 15:25 08:30 02:00 00:05 11:51 - 11:15 15:25 14:05
Maximum _ 21,1 C 98 % 1022,8 hPa 1,5 l/m 8,0 km/h
NO (2 Bft)
- 11,6 C 21,1 C 17,7 km/h
O-NO (3 Bft)
Durchschnitt _ 10,0 C 84 % 1019,9 hPa #3,3 l/m 1,1 km/h (1 Bft) N 7,1 C 10,0 C 3,1 km/h (1 Bft)